Time,TemperatureF,DewpointF,PressureIn,WindDirection,WindDirectionDegrees,WindSpeedMPH,WindSpeedGustMPH,Humidity,HourlyPrecipIn,Conditions,Clouds,dailyrainin,SoftwareType,DateUTC
2013-08-08 00:22:00,53.0,50.0,-100.00,North,-999,-999.0,-999.0,87,0.00,,,0.00,,2013-08-08 05:22:00,
2013-08-08 00:33:00,53.0,50.0,-100.00,North,-999,-999.0,-999.0,87,0.00,,,0.00,,2013-08-08 05:33:00,
2013-08-08 00:52:00,53.0,48.0,-100.00,North,-999,-999.0,-999.0,87,0.00,,,0.00,,2013-08-08 05:52:00,
2013-08-08 01:22:00,51.0,48.0,-100.00,North,-999,-999.0,-999.0,87,0.00,,,0.00,,2013-08-08 06:22:00,
2013-08-08 01:52:00,51.0,48.0,-100.00,North,-999,-999.0,-999.0,88,0.00,,,0.00,,2013-08-08 06:52:00,
2013-08-08 02:12:00,51.0,48.0,-100.00,North,-999,-999.0,-999.0,88,0.00,,,0.00,,2013-08-08 07:12:00,
2013-08-08 02:22:00,51.0,48.0,-100.00,North,-999,-999.0,-999.0,88,0.00,,,0.00,,2013-08-08 07:22:00,
2013-08-08 03:02:00,50.0,46.0,-100.00,North,-999,-999.0,-999.0,88,0.00,,,0.00,,2013-08-08 08:02:00,
2013-08-08 03:22:00,50.0,46.0,-100.00,North,-999,-999.0,-999.0,88,0.00,,,0.00,,2013-08-08 08:22:00,
2013-08-08 03:53:00,50.0,46.0,-100.00,North,-999,-999.0,-999.0,88,0.00,,,0.00,,2013-08-08 08:53:00,
2013-08-08 04:01:00,50.0,46.0,-100.00,North,-999,-999.0,-999.0,88,0.00,,,0.00,,2013-08-08 09:01:00,
2013-08-08 04:12:00,50.0,46.0,-100.00,North,-999,-999.0,-999.0,88,0.00,,,0.00,,2013-08-08 09:12:00,
2013-08-08 04:22:00,50.0,46.0,-100.00,North,-999,-999.0,-999.0,88,0.00,,,0.00,,2013-08-08 09:22:00,
2013-08-08 05:12:00,51.0,48.0,-100.00,North,-999,-999.0,-999.0,88,0.00,,,0.00,,2013-08-08 10:12:00,
2013-08-08 05:52:00,51.0,48.0,-100.00,North,-999,-999.0,-999.0,88,0.00,,,0.00,,2013-08-08 10:52:00,
2013-08-08 06:22:00,51.0,48.0,-100.00,North,-999,-999.0,-999.0,89,0.00,,,0.00,,2013-08-08 11:22:00,
2013-08-08 06:32:00,51.0,48.0,-100.00,North,-999,-999.0,-999.0,89,0.00,,,0.00,,2013-08-08 11:32:00,
2013-08-08 06:43:00,51.0,48.0,-100.00,North,-999,-999.0,-999.0,89,0.00,,,0.00,,2013-08-08 11:43:00,
2013-08-08 07:01:00,52.0,48.0,-100.00,North,-999,-999.0,-999.0,89,0.00,,,0.00,,2013-08-08 12:01:00,
2013-08-08 07:21:00,53.0,50.0,-100.00,North,-999,-999.0,-999.0,89,0.00,,,0.00,,2013-08-08 12:21:00,
2013-08-08 08:11:00,58.0,54.0,-100.00,North,-999,-999.0,-999.0,86,0.00,,,0.00,,2013-08-08 13:11:00,
2013-08-08 08:22:00,59.0,54.0,-100.00,North,-999,-999.0,-999.0,84,0.00,,,0.00,,2013-08-08 13:22:00,
2013-08-08 08:32:00,59.0,52.0,-100.00,North,-999,-999.0,-999.0,78,0.00,,,0.00,,2013-08-08 13:32:00,
2013-08-08 08:52:00,60.0,52.0,-100.00,North,-999,-999.0,-999.0,72,0.00,,,0.00,,2013-08-08 13:52:00,
2013-08-08 09:11:00,60.0,52.0,-100.00,North,-999,-999.0,-999.0,70,0.00,,,0.00,,2013-08-08 14:11:00,
2013-08-08 09:22:00,60.0,52.0,-100.00,North,-999,-999.0,-999.0,71,0.00,,,0.00,,2013-08-08 14:22:00,
2013-08-08 09:32:00,61.0,52.0,-100.00,North,-999,-999.0,-999.0,71,0.00,,,0.00,,2013-08-08 14:32:00,
2013-08-08 09:53:00,62.0,52.0,-100.00,North,-999,-999.0,-999.0,71,0.00,,,0.00,,2013-08-08 14:53:00,
2013-08-08 10:02:00,63.0,52.0,-100.00,North,-999,-999.0,-999.0,67,0.00,,,0.00,,2013-08-08 15:02:00,
2013-08-08 10:53:00,69.0,48.0,-100.00,North,-999,-999.0,-999.0,48,0.00,,,0.00,,2013-08-08 15:53:00,
2013-08-08 11:22:00,70.0,48.0,-100.00,North,-999,-999.0,-999.0,47,0.00,,,0.00,,2013-08-08 16:22:00,
2013-08-08 11:52:00,72.0,50.0,-100.00,North,-999,-999.0,-999.0,46,0.00,,,0.00,,2013-08-08 16:52:00,
2013-08-08 12:02:00,72.0,50.0,-100.00,North,-999,-999.0,-999.0,44,0.00,,,0.00,,2013-08-08 17:02:00,
2013-08-08 12:11:00,71.0,48.0,-100.00,North,-999,-999.0,-999.0,44,0.00,,,0.00,,2013-08-08 17:11:00,
2013-08-08 12:21:00,74.0,50.0,-100.00,North,-999,-999.0,-999.0,43,0.00,,,0.00,,2013-08-08 17:21:00,
2013-08-08 12:52:00,71.0,48.0,-100.00,North,-999,-999.0,-999.0,42,0.00,,,0.00,,2013-08-08 17:52:00,
2013-08-08 13:01:00,72.0,48.0,-100.00,North,-999,-999.0,-999.0,43,0.00,,,0.00,,2013-08-08 18:01:00,
2013-08-08 13:11:00,72.0,50.0,-100.00,North,-999,-999.0,-999.0,43,0.00,,,0.00,,2013-08-08 18:11:00,
2013-08-08 13:22:00,73.0,48.0,-100.00,North,-999,-999.0,-999.0,42,0.00,,,0.00,,2013-08-08 18:22:00,
2013-08-08 14:22:00,72.0,50.0,-100.00,North,-999,-999.0,-999.0,44,0.00,,,0.00,,2013-08-08 19:22:00,
2013-08-08 14:55:00,71.0,50.0,-100.00,North,-999,-999.0,-999.0,48,0.00,,,0.00,,2013-08-08 19:55:00,
2013-08-08 15:02:00,72.0,52.0,-100.00,North,-999,-999.0,-999.0,48,0.00,,,0.00,,2013-08-08 20:02:00,
2013-08-08 15:11:00,72.0,52.0,-100.00,North,-999,-999.0,-999.0,50,0.00,,,0.00,,2013-08-08 20:11:00,
2013-08-08 15:22:00,73.0,54.0,-100.00,North,-999,-999.0,-999.0,49,0.00,,,0.00,,2013-08-08 20:22:00,
2013-08-08 15:52:00,71.0,52.0,-100.00,North,-999,-999.0,-999.0,50,0.00,,,0.00,,2013-08-08 20:52:00,
2013-08-08 16:01:00,71.0,54.0,-100.00,North,-999,-999.0,-999.0,53,0.00,,,0.00,,2013-08-08 21:01:00,
2013-08-08 16:14:00,74.0,55.0,-100.00,North,-999,-999.0,-999.0,51,0.00,,,0.00,,2013-08-08 21:14:00,
2013-08-08 16:33:00,75.0,54.0,-100.00,North,-999,-999.0,-999.0,47,0.00,,,0.00,,2013-08-08 21:33:00,
2013-08-08 16:53:00,75.0,54.0,-100.00,North,-999,-999.0,-999.0,45,0.00,,,0.00,,2013-08-08 21:53:00,
2013-08-08 17:16:00,72.0,52.0,-100.00,North,-999,-999.0,-999.0,50,0.00,,,0.00,,2013-08-08 22:16:00,
2013-08-08 17:24:00,73.0,54.0,-100.00,North,-999,-999.0,-999.0,49,0.00,,,0.00,,2013-08-08 22:24:00,
2013-08-08 18:14:00,73.0,52.0,-100.00,North,-999,-999.0,-999.0,46,0.00,,,0.00,,2013-08-08 23:14:00,
2013-08-08 19:05:00,73.0,52.0,-100.00,North,-999,-999.0,-999.0,48,0.00,,,0.00,,2013-08-09 00:05:00,
2013-08-08 19:45:00,71.0,54.0,-100.00,North,-999,-999.0,-999.0,53,0.00,,,0.00,,2013-08-09 00:45:00,
2013-08-08 19:53:00,70.0,54.0,-100.00,North,-999,-999.0,-999.0,53,0.00,,,0.00,,2013-08-09 00:53:00,
2013-08-08 20:02:00,70.0,54.0,-100.00,North,-999,-999.0,-999.0,56,0.00,,,0.00,,2013-08-09 01:02:00,
2013-08-08 20:24:00,69.0,55.0,-100.00,North,-999,-999.0,-999.0,58,0.00,,,0.00,,2013-08-09 01:24:00,
2013-08-08 20:46:00,68.0,55.0,-100.00,North,-999,-999.0,-999.0,62,0.00,,,0.00,,2013-08-09 01:46:00,
2013-08-08 21:24:00,67.0,57.0,-100.00,North,-999,-999.0,-999.0,71,0.00,,,0.00,,2013-08-09 02:24:00,
2013-08-08 21:37:00,66.0,57.0,-100.00,North,-999,-999.0,-999.0,73,0.00,,,0.00,,2013-08-09 02:37:00,
2013-08-08 22:15:00,65.0,59.0,-100.00,North,-999,-999.0,-999.0,81,0.00,,,0.00,,2013-08-09 03:15:00,
2013-08-08 22:44:00,64.0,59.0,-100.00,North,-999,-999.0,-999.0,83,0.00,,,0.00,,2013-08-09 03:44:00,
2013-08-08 22:53:00,62.0,57.0,-100.00,North,-999,-999.0,-999.0,84,0.00,,,0.00,,2013-08-09 03:53:00,
2013-08-08 23:01:00,62.0,57.0,-100.00,North,-999,-999.0,-999.0,85,0.00,,,0.00,,2013-08-09 04:01:00,
2013-08-08 23:33:00,61.0,57.0,-100.00,North,-999,-999.0,-999.0,86,0.00,,,0.00,,2013-08-09 04:33:00,
2013-08-08 23:43:00,61.0,57.0,-100.00,North,-999,-999.0,-999.0,87,0.00,,,0.00,,2013-08-09 04:43:00,
2013-08-08 23:53:00,61.0,57.0,-100.00,North,-999,-999.0,-999.0,87,0.00,,,0.00,,2013-08-09 04:53:00,